sensor_id;sensor_type;location;lat;lon;timestamp;P1;durP1;ratioP1;P2;durP2;ratioP2
11642;SDS011;5877;50.930;6.918;2022-09-27T00:02:26;2.67;;;1.30;;
11642;SDS011;5877;50.930;6.918;2022-09-27T00:04:52;4.10;;;1.23;;
11642;SDS011;5877;50.930;6.918;2022-09-27T00:07:20;2.17;;;1.00;;
11642;SDS011;5877;50.930;6.918;2022-09-27T00:09:47;2.07;;;0.90;;
11642;SDS011;5877;50.930;6.918;2022-09-27T00:12:14;2.97;;;1.17;;
11642;SDS011;5877;50.930;6.918;2022-09-27T00:14:41;1.70;;;1.00;;
11642;SDS011;5877;50.930;6.918;2022-09-27T00:17:08;2.37;;;1.20;;
11642;SDS011;5877;50.930;6.918;2022-09-27T00:19:34;2.63;;;1.20;;
11642;SDS011;5877;50.930;6.918;2022-09-27T00:22:01;2.03;;;1.10;;
11642;SDS011;5877;50.930;6.918;2022-09-27T00:24:29;2.93;;;1.23;;
11642;SDS011;5877;50.930;6.918;2022-09-27T00:26:57;1.57;;;1.20;;
11642;SDS011;5877;50.930;6.918;2022-09-27T00:29:23;2.70;;;1.30;;
11642;SDS011;5877;50.930;6.918;2022-09-27T00:31:50;4.33;;;1.60;;
11642;SDS011;5877;50.930;6.918;2022-09-27T00:34:19;2.57;;;1.40;;
11642;SDS011;5877;50.930;6.918;2022-09-27T00:36:46;1.80;;;1.00;;
11642;SDS011;5877;50.930;6.918;2022-09-27T00:39:13;2.83;;;1.20;;
11642;SDS011;5877;50.930;6.918;2022-09-27T00:41:40;2.03;;;1.37;;
11642;SDS011;5877;50.930;6.918;2022-09-27T00:46:58;4.40;;;1.40;;
11642;SDS011;5877;50.930;6.918;2022-09-27T00:49:37;4.40;;;1.37;;
11642;SDS011;5877;50.930;6.918;2022-09-27T00:52:08;4.67;;;1.60;;
11642;SDS011;5877;50.930;6.918;2022-09-27T00:54:37;3.53;;;1.57;;
11642;SDS011;5877;50.930;6.918;2022-09-27T00:57:05;4.40;;;1.50;;
11642;SDS011;5877;50.930;6.918;2022-09-27T00:59:33;3.97;;;1.80;;
11642;SDS011;5877;50.930;6.918;2022-09-27T01:02:02;2.93;;;1.50;;
11642;SDS011;5877;50.930;6.918;2022-09-27T01:04:29;3.67;;;1.40;;
11642;SDS011;5877;50.930;6.918;2022-09-27T01:06:58;2.40;;;1.50;;
11642;SDS011;5877;50.930;6.918;2022-09-27T01:09:25;4.10;;;1.40;;
11642;SDS011;5877;50.930;6.918;2022-09-27T01:30:41;1.80;;;0.70;;
11642;SDS011;5877;50.930;6.918;2022-09-27T01:33:23;3.90;;;1.03;;
11642;SDS011;5877;50.930;6.918;2022-09-27T01:36:10;3.03;;;1.10;;
11642;SDS011;5877;50.930;6.918;2022-09-27T01:38:52;2.93;;;0.93;;
11642;SDS011;5877;50.930;6.918;2022-09-27T01:41:29;1.97;;;1.00;;
11642;SDS011;5877;50.930;6.918;2022-09-27T01:46:49;2.80;;;1.03;;
11642;SDS011;5877;50.930;6.918;2022-09-27T01:50:09;1.17;;;1.00;;
11642;SDS011;5877;50.930;6.918;2022-09-27T01:52:18;2.60;;;1.17;;
11642;SDS011;5877;50.930;6.918;2022-09-27T01:54:47;3.03;;;1.00;;
11642;SDS011;5877;50.930;6.918;2022-09-27T01:57:30;3.10;;;1.30;;
11642;SDS011;5877;50.930;6.918;2022-09-27T02:00:01;2.77;;;1.03;;
11642;SDS011;5877;50.930;6.918;2022-09-27T02:02:48;2.17;;;1.20;;
11642;SDS011;5877;50.930;6.918;2022-09-27T02:05:19;3.27;;;1.53;;
11642;SDS011;5877;50.930;6.918;2022-09-27T02:07:54;3.77;;;1.40;;
11642;SDS011;5877;50.930;6.918;2022-09-27T02:10:24;2.00;;;1.27;;
11642;SDS011;5877;50.930;6.918;2022-09-27T02:12:55;2.23;;;1.20;;
11642;SDS011;5877;50.930;6.918;2022-09-27T02:15:23;4.27;;;1.60;;
11642;SDS011;5877;50.930;6.918;2022-09-27T02:18:13;3.43;;;1.97;;
11642;SDS011;5877;50.930;6.918;2022-09-27T02:20:48;3.50;;;1.57;;
11642;SDS011;5877;50.930;6.918;2022-09-27T02:31:01;4.20;;;1.17;;
11642;SDS011;5877;50.930;6.918;2022-09-27T02:33:33;2.70;;;1.03;;
11642;SDS011;5877;50.930;6.918;2022-09-27T02:36:02;2.67;;;1.17;;
11642;SDS011;5877;50.930;6.918;2022-09-27T02:38:29;3.07;;;1.43;;
11642;SDS011;5877;50.930;6.918;2022-09-27T02:40:57;4.07;;;1.20;;
11642;SDS011;5877;50.930;6.918;2022-09-27T02:43:26;3.43;;;1.17;;
11642;SDS011;5877;50.930;6.918;2022-09-27T02:48:48;5.80;;;1.00;;
11642;SDS011;5877;50.930;6.918;2022-09-27T02:54:05;3.27;;;1.30;;
11642;SDS011;5877;50.930;6.918;2022-09-27T03:00:29;6.53;;;1.30;;
11642;SDS011;5877;50.930;6.918;2022-09-27T03:03:24;2.70;;;0.80;;
11642;SDS011;5877;50.930;6.918;2022-09-27T03:08:28;1.53;;;1.00;;
11642;SDS011;5877;50.930;6.918;2022-09-27T03:10:55;1.63;;;1.10;;
11642;SDS011;5877;50.930;6.918;2022-09-27T03:13:22;2.53;;;1.30;;
11642;SDS011;5877;50.930;6.918;2022-09-27T03:15:49;2.07;;;1.10;;
11642;SDS011;5877;50.930;6.918;2022-09-27T03:18:17;2.33;;;1.00;;
11642;SDS011;5877;50.930;6.918;2022-09-27T03:21:02;2.30;;;1.00;;
11642;SDS011;5877;50.930;6.918;2022-09-27T03:23:29;1.13;;;0.70;;
11642;SDS011;5877;50.930;6.918;2022-09-27T03:25:56;2.03;;;0.97;;
11642;SDS011;5877;50.930;6.918;2022-09-27T03:28:23;1.70;;;0.80;;
11642;SDS011;5877;50.930;6.918;2022-09-27T03:30:51;1.43;;;0.70;;
11642;SDS011;5877;50.930;6.918;2022-09-27T03:33:36;2.30;;;0.90;;
11642;SDS011;5877;50.930;6.918;2022-09-27T03:36:09;0.60;;;0.60;;
11642;SDS011;5877;50.930;6.918;2022-09-27T03:38:37;1.77;;;0.70;;
11642;SDS011;5877;50.930;6.918;2022-09-27T03:41:06;1.73;;;0.57;;
11642;SDS011;5877;50.930;6.918;2022-09-27T03:43:33;1.17;;;0.60;;
11642;SDS011;5877;50.930;6.918;2022-09-27T03:46:02;2.63;;;0.73;;
11642;SDS011;5877;50.930;6.918;2022-09-27T03:48:29;1.83;;;0.90;;
11642;SDS011;5877;50.930;6.918;2022-09-27T03:50:56;1.73;;;0.90;;
11642;SDS011;5877;50.930;6.918;2022-09-27T03:53:23;2.77;;;1.00;;
11642;SDS011;5877;50.930;6.918;2022-09-27T03:55:53;2.37;;;1.00;;
11642;SDS011;5877;50.930;6.918;2022-09-27T03:58:20;3.57;;;1.10;;
11642;SDS011;5877;50.930;6.918;2022-09-27T04:00:48;3.83;;;1.07;;
11642;SDS011;5877;50.930;6.918;2022-09-27T04:03:14;2.07;;;1.20;;
11642;SDS011;5877;50.930;6.918;2022-09-27T04:06:08;1.53;;;0.87;;
11642;SDS011;5877;50.930;6.918;2022-09-27T04:08:40;1.83;;;0.93;;
11642;SDS011;5877;50.930;6.918;2022-09-27T04:11:08;1.70;;;0.83;;
11642;SDS011;5877;50.930;6.918;2022-09-27T04:13:37;1.47;;;0.80;;
11642;SDS011;5877;50.930;6.918;2022-09-27T04:16:04;2.13;;;0.67;;
11642;SDS011;5877;50.930;6.918;2022-09-27T04:18:48;2.93;;;1.03;;
11642;SDS011;5877;50.930;6.918;2022-09-27T04:21:44;2.23;;;0.87;;
11642;SDS011;5877;50.930;6.918;2022-09-27T04:24:12;2.00;;;0.73;;
11642;SDS011;5877;50.930;6.918;2022-09-27T04:26:47;2.97;;;0.80;;
11642;SDS011;5877;50.930;6.918;2022-09-27T04:29:20;2.47;;;0.90;;
11642;SDS011;5877;50.930;6.918;2022-09-27T04:31:50;4.33;;;0.90;;
11642;SDS011;5877;50.930;6.918;2022-09-27T04:34:43;1.73;;;0.90;;
11642;SDS011;5877;50.930;6.918;2022-09-27T04:37:28;4.30;;;1.27;;
11642;SDS011;5877;50.930;6.918;2022-09-27T04:40:00;2.23;;;1.20;;
11642;SDS011;5877;50.930;6.918;2022-09-27T04:42:28;2.13;;;1.40;;
11642;SDS011;5877;50.930;6.918;2022-09-27T04:44:55;3.20;;;1.57;;
11642;SDS011;5877;50.930;6.918;2022-09-27T04:47:22;4.53;;;1.67;;
11642;SDS011;5877;50.930;6.918;2022-09-27T04:49:49;2.97;;;1.40;;
11642;SDS011;5877;50.930;6.918;2022-09-27T04:52:16;5.73;;;1.60;;
11642;SDS011;5877;50.930;6.918;2022-09-27T04:54:43;5.97;;;2.10;;
11642;SDS011;5877;50.930;6.918;2022-09-27T04:57:10;3.13;;;1.57;;
11642;SDS011;5877;50.930;6.918;2022-09-27T04:59:39;2.87;;;1.30;;
11642;SDS011;5877;50.930;6.918;2022-09-27T05:02:08;4.50;;;1.73;;
11642;SDS011;5877;50.930;6.918;2022-09-27T05:04:53;4.07;;;1.43;;
11642;SDS011;5877;50.930;6.918;2022-09-27T05:07:33;2.97;;;1.40;;
11642;SDS011;5877;50.930;6.918;2022-09-27T05:10:04;2.13;;;1.80;;
11642;SDS011;5877;50.930;6.918;2022-09-27T05:12:31;2.50;;;1.50;;
11642;SDS011;5877;50.930;6.918;2022-09-27T05:15:00;3.93;;;1.50;;
11642;SDS011;5877;50.930;6.918;2022-09-27T05:17:46;2.37;;;1.20;;
11642;SDS011;5877;50.930;6.918;2022-09-27T05:20:30;4.77;;;1.50;;
11642;SDS011;5877;50.930;6.918;2022-09-27T05:23:05;3.20;;;1.30;;
11642;SDS011;5877;50.930;6.918;2022-09-27T05:25:34;2.73;;;1.70;;
11642;SDS011;5877;50.930;6.918;2022-09-27T05:28:01;3.07;;;1.50;;
11642;SDS011;5877;50.930;6.918;2022-09-27T05:30:28;2.83;;;1.30;;
11642;SDS011;5877;50.930;6.918;2022-09-27T05:33:04;3.03;;;1.60;;
11642;SDS011;5877;50.930;6.918;2022-09-27T05:35:52;3.77;;;1.20;;
11642;SDS011;5877;50.930;6.918;2022-09-27T05:38:28;3.23;;;1.60;;
11642;SDS011;5877;50.930;6.918;2022-09-27T05:40:58;4.33;;;1.50;;
11642;SDS011;5877;50.930;6.918;2022-09-27T05:43:24;2.33;;;1.47;;
11642;SDS011;5877;50.930;6.918;2022-09-27T05:45:52;4.50;;;1.30;;
11642;SDS011;5877;50.930;6.918;2022-09-27T05:48:20;3.37;;;1.30;;
11642;SDS011;5877;50.930;6.918;2022-09-27T05:50:54;2.60;;;1.10;;
11642;SDS011;5877;50.930;6.918;2022-09-27T05:53:21;2.53;;;1.33;;
11642;SDS011;5877;50.930;6.918;2022-09-27T05:55:47;4.10;;;1.60;;
11642;SDS011;5877;50.930;6.918;2022-09-27T05:58:24;2.63;;;1.53;;
11642;SDS011;5877;50.930;6.918;2022-09-27T06:01:01;4.50;;;1.40;;
11642;SDS011;5877;50.930;6.918;2022-09-27T06:03:54;5.33;;;1.30;;
11642;SDS011;5877;50.930;6.918;2022-09-27T06:06:39;2.60;;;1.50;;
11642;SDS011;5877;50.930;6.918;2022-09-27T06:09:10;3.93;;;1.20;;
11642;SDS011;5877;50.930;6.918;2022-09-27T06:11:38;3.23;;;1.50;;
11642;SDS011;5877;50.930;6.918;2022-09-27T06:14:12;4.37;;;1.10;;
11642;SDS011;5877;50.930;6.918;2022-09-27T06:16:56;3.80;;;1.20;;
11642;SDS011;5877;50.930;6.918;2022-09-27T06:19:26;1.90;;;1.07;;
11642;SDS011;5877;50.930;6.918;2022-09-27T06:21:55;1.73;;;0.93;;
11642;SDS011;5877;50.930;6.918;2022-09-27T06:24:25;4.30;;;1.30;;
11642;SDS011;5877;50.930;6.918;2022-09-27T06:26:52;1.70;;;1.10;;
11642;SDS011;5877;50.930;6.918;2022-09-27T06:29:36;3.73;;;1.40;;
11642;SDS011;5877;50.930;6.918;2022-09-27T06:32:07;2.53;;;1.00;;
11642;SDS011;5877;50.930;6.918;2022-09-27T06:34:59;4.27;;;1.43;;
11642;SDS011;5877;50.930;6.918;2022-09-27T06:37:26;3.90;;;1.00;;
11642;SDS011;5877;50.930;6.918;2022-09-27T06:39:54;2.20;;;1.00;;
11642;SDS011;5877;50.930;6.918;2022-09-27T06:42:47;3.00;;;1.10;;
11642;SDS011;5877;50.930;6.918;2022-09-27T06:45:41;2.63;;;1.03;;
11642;SDS011;5877;50.930;6.918;2022-09-27T06:48:31;3.43;;;1.23;;
11642;SDS011;5877;50.930;6.918;2022-09-27T06:51:09;4.73;;;1.10;;
11642;SDS011;5877;50.930;6.918;2022-09-27T06:53:37;4.87;;;0.93;;
11642;SDS011;5877;50.930;6.918;2022-09-27T06:56:05;4.03;;;0.90;;
11642;SDS011;5877;50.930;6.918;2022-09-27T06:58:51;1.47;;;0.73;;
11642;SDS011;5877;50.930;6.918;2022-09-27T07:01:44;2.33;;;0.77;;
11642;SDS011;5877;50.930;6.918;2022-09-27T07:04:29;3.00;;;0.80;;
11642;SDS011;5877;50.930;6.918;2022-09-27T07:07:13;1.83;;;0.90;;
11642;SDS011;5877;50.930;6.918;2022-09-27T07:09:43;1.47;;;0.80;;
11642;SDS011;5877;50.930;6.918;2022-09-27T07:12:12;3.13;;;1.03;;
11642;SDS011;5877;50.930;6.918;2022-09-27T07:14:40;4.57;;;1.00;;
11642;SDS011;5877;50.930;6.918;2022-09-27T07:17:14;1.80;;;0.90;;
11642;SDS011;5877;50.930;6.918;2022-09-27T07:19:43;2.07;;;0.90;;
11642;SDS011;5877;50.930;6.918;2022-09-27T07:22:11;2.43;;;0.60;;
11642;SDS011;5877;50.930;6.918;2022-09-27T07:24:39;1.97;;;0.83;;
11642;SDS011;5877;50.930;6.918;2022-09-27T07:27:06;3.63;;;0.77;;
11642;SDS011;5877;50.930;6.918;2022-09-27T07:29:33;2.47;;;0.90;;
11642;SDS011;5877;50.930;6.918;2022-09-27T07:32:00;2.33;;;0.60;;
11642;SDS011;5877;50.930;6.918;2022-09-27T07:34:27;4.00;;;1.20;;
11642;SDS011;5877;50.930;6.918;2022-09-27T07:36:57;3.27;;;0.80;;
11642;SDS011;5877;50.930;6.918;2022-09-27T07:39:26;1.13;;;0.50;;
11642;SDS011;5877;50.930;6.918;2022-09-27T07:41:54;2.40;;;0.70;;
11642;SDS011;5877;50.930;6.918;2022-09-27T07:44:21;2.03;;;0.90;;
11642;SDS011;5877;50.930;6.918;2022-09-27T07:47:06;3.37;;;0.90;;
11642;SDS011;5877;50.930;6.918;2022-09-27T07:49:52;1.37;;;1.00;;
11642;SDS011;5877;50.930;6.918;2022-09-27T07:52:41;2.13;;;0.80;;
11642;SDS011;5877;50.930;6.918;2022-09-27T07:55:32;1.90;;;1.00;;
11642;SDS011;5877;50.930;6.918;2022-09-27T07:58:11;1.10;;;0.53;;
11642;SDS011;5877;50.930;6.918;2022-09-27T08:00:39;0.87;;;0.70;;
11642;SDS011;5877;50.930;6.918;2022-09-27T08:03:12;1.30;;;0.60;;
11642;SDS011;5877;50.930;6.918;2022-09-27T08:05:45;0.73;;;0.53;;
11642;SDS011;5877;50.930;6.918;2022-09-27T08:08:13;0.63;;;0.40;;
11642;SDS011;5877;50.930;6.918;2022-09-27T08:10:41;1.17;;;0.50;;
11642;SDS011;5877;50.930;6.918;2022-09-27T08:13:14;0.80;;;0.50;;
11642;SDS011;5877;50.930;6.918;2022-09-27T08:15:43;0.87;;;0.40;;
11642;SDS011;5877;50.930;6.918;2022-09-27T08:18:10;1.50;;;0.60;;
11642;SDS011;5877;50.930;6.918;2022-09-27T08:20:57;1.47;;;0.80;;
11642;SDS011;5877;50.930;6.918;2022-09-27T08:23:27;1.27;;;0.57;;
11642;SDS011;5877;50.930;6.918;2022-09-27T08:26:10;1.83;;;0.70;;
11642;SDS011;5877;50.930;6.918;2022-09-27T08:28:52;1.17;;;0.53;;
11642;SDS011;5877;50.930;6.918;2022-09-27T08:31:23;2.23;;;0.70;;
11642;SDS011;5877;50.930;6.918;2022-09-27T08:33:54;3.93;;;0.67;;
11642;SDS011;5877;50.930;6.918;2022-09-27T08:36:23;0.83;;;0.53;;
11642;SDS011;5877;50.930;6.918;2022-09-27T08:38:50;1.90;;;0.60;;
11642;SDS011;5877;50.930;6.918;2022-09-27T08:44:06;1.87;;;0.70;;
11642;SDS011;5877;50.930;6.918;2022-09-27T08:46:52;1.60;;;0.50;;
11642;SDS011;5877;50.930;6.918;2022-09-27T08:52:05;2.13;;;0.70;;
11642;SDS011;5877;50.930;6.918;2022-09-27T08:54:34;1.63;;;0.80;;
11642;SDS011;5877;50.930;6.918;2022-09-27T08:57:05;3.17;;;0.87;;
11642;SDS011;5877;50.930;6.918;2022-09-27T08:59:39;2.33;;;0.67;;
11642;SDS011;5877;50.930;6.918;2022-09-27T09:02:15;2.83;;;0.90;;
11642;SDS011;5877;50.930;6.918;2022-09-27T09:04:48;1.57;;;0.73;;
11642;SDS011;5877;50.930;6.918;2022-09-27T09:21:02;1.43;;;0.77;;
11642;SDS011;5877;50.930;6.918;2022-09-27T09:26:17;3.53;;;0.80;;
11642;SDS011;5877;50.930;6.918;2022-09-27T09:39:20;1.57;;;0.60;;
11642;SDS011;5877;50.930;6.918;2022-09-27T09:42:09;2.80;;;1.20;;
11642;SDS011;5877;50.930;6.918;2022-09-27T09:44:47;2.83;;;1.10;;
11642;SDS011;5877;50.930;6.918;2022-09-27T09:53:01;6.17;;;1.30;;
11642;SDS011;5877;50.930;6.918;2022-09-27T09:55:34;1.50;;;0.77;;
11642;SDS011;5877;50.930;6.918;2022-09-27T09:58:11;2.73;;;0.90;;
11642;SDS011;5877;50.930;6.918;2022-09-27T10:00:49;1.90;;;0.90;;
11642;SDS011;5877;50.930;6.918;2022-09-27T10:03:16;3.30;;;0.97;;
11642;SDS011;5877;50.930;6.918;2022-09-27T10:05:43;2.27;;;0.80;;
11642;SDS011;5877;50.930;6.918;2022-09-27T10:08:17;2.53;;;0.70;;
11642;SDS011;5877;50.930;6.918;2022-09-27T10:10:49;2.23;;;1.07;;
11642;SDS011;5877;50.930;6.918;2022-09-27T10:13:43;1.47;;;0.80;;
11642;SDS011;5877;50.930;6.918;2022-09-27T10:16:11;1.10;;;0.70;;
11642;SDS011;5877;50.930;6.918;2022-09-27T10:18:40;2.43;;;0.90;;
11642;SDS011;5877;50.930;6.918;2022-09-27T10:21:21;1.77;;;0.80;;
11642;SDS011;5877;50.930;6.918;2022-09-27T10:24:01;1.43;;;1.00;;
11642;SDS011;5877;50.930;6.918;2022-09-27T10:26:57;1.40;;;0.77;;
11642;SDS011;5877;50.930;6.918;2022-09-27T10:29:29;2.40;;;0.80;;
11642;SDS011;5877;50.930;6.918;2022-09-27T10:32:11;1.37;;;0.87;;
11642;SDS011;5877;50.930;6.918;2022-09-27T10:34:44;3.00;;;1.10;;
11642;SDS011;5877;50.930;6.918;2022-09-27T10:39:50;1.63;;;1.07;;
11642;SDS011;5877;50.930;6.918;2022-09-27T10:42:21;3.13;;;1.10;;
11642;SDS011;5877;50.930;6.918;2022-09-27T10:44:48;1.93;;;0.93;;
11642;SDS011;5877;50.930;6.918;2022-09-27T10:47:27;1.07;;;0.70;;
11642;SDS011;5877;50.930;6.918;2022-09-27T10:50:03;2.30;;;0.80;;
11642;SDS011;5877;50.930;6.918;2022-09-27T10:53:14;2.03;;;1.20;;
11642;SDS011;5877;50.930;6.918;2022-09-27T10:55:46;2.70;;;1.00;;
11642;SDS011;5877;50.930;6.918;2022-09-27T10:58:19;1.60;;;0.90;;
11642;SDS011;5877;50.930;6.918;2022-09-27T11:00:56;2.10;;;1.07;;
11642;SDS011;5877;50.930;6.918;2022-09-27T11:03:23;2.80;;;1.27;;
11642;SDS011;5877;50.930;6.918;2022-09-27T11:05:51;2.20;;;1.10;;
11642;SDS011;5877;50.930;6.918;2022-09-27T11:08:23;3.53;;;1.50;;
11642;SDS011;5877;50.930;6.918;2022-09-27T11:11:25;5.13;;;1.23;;
11642;SDS011;5877;50.930;6.918;2022-09-27T11:17:07;3.53;;;1.27;;
11642;SDS011;5877;50.930;6.918;2022-09-27T11:30:22;1.63;;;1.23;;
11642;SDS011;5877;50.930;6.918;2022-09-27T11:36:03;2.73;;;1.60;;
11642;SDS011;5877;50.930;6.918;2022-09-27T11:38:32;1.63;;;1.00;;
11642;SDS011;5877;50.930;6.918;2022-09-27T11:46:46;4.10;;;1.40;;
11642;SDS011;5877;50.930;6.918;2022-09-27T11:57:24;3.03;;;1.27;;
11642;SDS011;5877;50.930;6.918;2022-09-27T12:00:03;2.30;;;0.93;;
11642;SDS011;5877;50.930;6.918;2022-09-27T12:11:04;5.33;;;1.40;;
11642;SDS011;5877;50.930;6.918;2022-09-27T12:13:36;2.57;;;1.03;;
11642;SDS011;5877;50.930;6.918;2022-09-27T12:16:05;1.67;;;0.93;;
11642;SDS011;5877;50.930;6.918;2022-09-27T12:18:36;3.30;;;1.30;;
11642;SDS011;5877;50.930;6.918;2022-09-27T12:21:23;7.60;;;1.40;;
11642;SDS011;5877;50.930;6.918;2022-09-27T12:23:56;3.73;;;1.13;;
11642;SDS011;5877;50.930;6.918;2022-09-27T12:26:37;3.77;;;1.37;;
11642;SDS011;5877;50.930;6.918;2022-09-27T12:32:07;1.60;;;1.30;;
11642;SDS011;5877;50.930;6.918;2022-09-27T12:34:43;2.67;;;1.30;;
11642;SDS011;5877;50.930;6.918;2022-09-27T12:40:38;3.20;;;1.27;;
11642;SDS011;5877;50.930;6.918;2022-09-27T12:43:17;2.97;;;1.30;;
11642;SDS011;5877;50.930;6.918;2022-09-27T12:51:09;4.07;;;1.30;;
11642;SDS011;5877;50.930;6.918;2022-09-27T13:01:44;1.60;;;0.80;;
11642;SDS011;5877;50.930;6.918;2022-09-27T13:12:13;2.03;;;0.90;;
11642;SDS011;5877;50.930;6.918;2022-09-27T13:22:54;1.70;;;0.87;;
11642;SDS011;5877;50.930;6.918;2022-09-27T13:25:48;1.47;;;0.97;;
11642;SDS011;5877;50.930;6.918;2022-09-27T13:28:35;1.17;;;0.77;;
11642;SDS011;5877;50.930;6.918;2022-09-27T13:34:37;2.83;;;0.93;;
11642;SDS011;5877;50.930;6.918;2022-09-27T13:40:08;2.17;;;0.80;;
11642;SDS011;5877;50.930;6.918;2022-09-27T13:45:41;2.70;;;0.83;;
11642;SDS011;5877;50.930;6.918;2022-09-27T13:48:15;2.27;;;0.70;;
11642;SDS011;5877;50.930;6.918;2022-09-27T13:53:23;1.00;;;0.50;;
11642;SDS011;5877;50.930;6.918;2022-09-27T13:55:51;1.00;;;0.50;;
11642;SDS011;5877;50.930;6.918;2022-09-27T14:06:49;1.27;;;0.57;;
11642;SDS011;5877;50.930;6.918;2022-09-27T14:09:17;1.23;;;0.40;;
11642;SDS011;5877;50.930;6.918;2022-09-27T14:11:51;1.43;;;0.60;;
11642;SDS011;5877;50.930;6.918;2022-09-27T14:14:23;1.73;;;0.70;;
11642;SDS011;5877;50.930;6.918;2022-09-27T14:16:55;2.30;;;0.63;;
11642;SDS011;5877;50.930;6.918;2022-09-27T14:19:24;2.73;;;0.70;;
11642;SDS011;5877;50.930;6.918;2022-09-27T14:21:51;1.10;;;0.63;;
11642;SDS011;5877;50.930;6.918;2022-09-27T14:24:28;3.10;;;0.77;;
11642;SDS011;5877;50.930;6.918;2022-09-27T14:27:13;2.97;;;0.80;;
11642;SDS011;5877;50.930;6.918;2022-09-27T14:29:43;0.83;;;0.67;;
11642;SDS011;5877;50.930;6.918;2022-09-27T14:32:17;1.40;;;0.80;;
11642;SDS011;5877;50.930;6.918;2022-09-27T14:37:32;1.30;;;0.70;;
11642;SDS011;5877;50.930;6.918;2022-09-27T14:40:16;2.23;;;0.70;;
11642;SDS011;5877;50.930;6.918;2022-09-27T14:42:44;3.33;;;0.70;;
11642;SDS011;5877;50.930;6.918;2022-09-27T14:45:21;3.13;;;1.00;;
11642;SDS011;5877;50.930;6.918;2022-09-27T14:47:49;1.43;;;0.60;;
11642;SDS011;5877;50.930;6.918;2022-09-27T14:50:26;1.77;;;0.80;;
11642;SDS011;5877;50.930;6.918;2022-09-27T14:52:57;2.47;;;0.83;;
11642;SDS011;5877;50.930;6.918;2022-09-27T14:55:26;1.83;;;0.70;;
11642;SDS011;5877;50.930;6.918;2022-09-27T14:57:55;4.57;;;1.17;;
11642;SDS011;5877;50.930;6.918;2022-09-27T15:00:25;1.97;;;0.80;;
11642;SDS011;5877;50.930;6.918;2022-09-27T15:02:54;3.17;;;0.90;;
11642;SDS011;5877;50.930;6.918;2022-09-27T15:05:24;3.13;;;1.10;;
11642;SDS011;5877;50.930;6.918;2022-09-27T15:07:53;2.27;;;0.87;;
11642;SDS011;5877;50.930;6.918;2022-09-27T15:10:25;1.60;;;0.80;;
11642;SDS011;5877;50.930;6.918;2022-09-27T15:12:53;4.53;;;1.30;;
11642;SDS011;5877;50.930;6.918;2022-09-27T15:15:24;2.47;;;0.90;;
11642;SDS011;5877;50.930;6.918;2022-09-27T15:17:52;3.60;;;1.00;;
11642;SDS011;5877;50.930;6.918;2022-09-27T15:22:50;3.33;;;1.00;;
11642;SDS011;5877;50.930;6.918;2022-09-27T15:27:52;3.27;;;0.90;;
11642;SDS011;5877;50.930;6.918;2022-09-27T15:30:26;1.80;;;0.80;;
11642;SDS011;5877;50.930;6.918;2022-09-27T15:32:55;2.87;;;0.60;;
11642;SDS011;5877;50.930;6.918;2022-09-27T15:35:23;1.40;;;0.60;;
11642;SDS011;5877;50.930;6.918;2022-09-27T15:37:50;2.20;;;0.60;;
11642;SDS011;5877;50.930;6.918;2022-09-27T15:42:54;0.97;;;0.60;;
11642;SDS011;5877;50.930;6.918;2022-09-27T15:45:29;3.53;;;1.30;;
11642;SDS011;5877;50.930;6.918;2022-09-27T15:48:04;1.43;;;1.20;;
11642;SDS011;5877;50.930;6.918;2022-09-27T15:50:32;1.17;;;0.80;;
11642;SDS011;5877;50.930;6.918;2022-09-27T15:52:59;1.40;;;1.30;;
11642;SDS011;5877;50.930;6.918;2022-09-27T15:55:30;3.63;;;2.10;;
11642;SDS011;5877;50.930;6.918;2022-09-27T15:57:59;2.90;;;2.43;;
11642;SDS011;5877;50.930;6.918;2022-09-27T16:00:28;2.97;;;2.37;;
11642;SDS011;5877;50.930;6.918;2022-09-27T16:02:55;4.80;;;4.40;;
11642;SDS011;5877;50.930;6.918;2022-09-27T16:05:22;3.07;;;1.50;;
11642;SDS011;5877;50.930;6.918;2022-09-27T16:07:50;2.53;;;1.20;;
11642;SDS011;5877;50.930;6.918;2022-09-27T16:10:21;2.73;;;1.10;;
11642;SDS011;5877;50.930;6.918;2022-09-27T16:12:49;2.53;;;1.10;;
11642;SDS011;5877;50.930;6.918;2022-09-27T16:15:16;2.03;;;1.73;;
11642;SDS011;5877;50.930;6.918;2022-09-27T16:17:43;1.87;;;1.40;;
11642;SDS011;5877;50.930;6.918;2022-09-27T16:20:14;2.77;;;1.10;;
11642;SDS011;5877;50.930;6.918;2022-09-27T16:22:43;3.63;;;0.90;;
11642;SDS011;5877;50.930;6.918;2022-09-27T16:25:10;2.43;;;1.33;;
11642;SDS011;5877;50.930;6.918;2022-09-27T16:27:37;4.13;;;1.10;;
11642;SDS011;5877;50.930;6.918;2022-09-27T16:30:04;2.33;;;1.20;;
11642;SDS011;5877;50.930;6.918;2022-09-27T16:32:33;1.87;;;0.80;;
11642;SDS011;5877;50.930;6.918;2022-09-27T16:35:01;2.33;;;1.30;;
11642;SDS011;5877;50.930;6.918;2022-09-27T16:37:28;2.00;;;1.17;;
11642;SDS011;5877;50.930;6.918;2022-09-27T16:39:55;3.40;;;1.23;;
11642;SDS011;5877;50.930;6.918;2022-09-27T16:42:22;1.80;;;0.90;;
11642;SDS011;5877;50.930;6.918;2022-09-27T16:44:49;3.37;;;1.50;;
11642;SDS011;5877;50.930;6.918;2022-09-27T16:47:19;2.67;;;1.40;;
11642;SDS011;5877;50.930;6.918;2022-09-27T16:49:46;2.17;;;1.80;;
11642;SDS011;5877;50.930;6.918;2022-09-27T16:52:33;2.83;;;1.10;;
11642;SDS011;5877;50.930;6.918;2022-09-27T16:55:00;2.80;;;1.33;;
11642;SDS011;5877;50.930;6.918;2022-09-27T16:57:28;1.90;;;1.10;;
11642;SDS011;5877;50.930;6.918;2022-09-27T16:59:55;2.93;;;1.80;;
11642;SDS011;5877;50.930;6.918;2022-09-27T17:02:22;1.83;;;1.67;;
11642;SDS011;5877;50.930;6.918;2022-09-27T17:04:50;1.80;;;1.30;;
11642;SDS011;5877;50.930;6.918;2022-09-27T17:07:19;2.97;;;1.60;;
11642;SDS011;5877;50.930;6.918;2022-09-27T17:09:45;3.33;;;1.67;;
11642;SDS011;5877;50.930;6.918;2022-09-27T17:12:13;3.13;;;1.70;;
11642;SDS011;5877;50.930;6.918;2022-09-27T17:15:05;1.93;;;1.73;;
11642;SDS011;5877;50.930;6.918;2022-09-27T17:17:33;3.93;;;2.00;;
11642;SDS011;5877;50.930;6.918;2022-09-27T17:19:59;7.07;;;2.93;;
11642;SDS011;5877;50.930;6.918;2022-09-27T17:22:26;3.57;;;1.63;;
11642;SDS011;5877;50.930;6.918;2022-09-27T17:24:53;2.90;;;1.80;;
11642;SDS011;5877;50.930;6.918;2022-09-27T17:27:23;4.40;;;2.00;;
11642;SDS011;5877;50.930;6.918;2022-09-27T17:29:55;3.97;;;1.67;;
11642;SDS011;5877;50.930;6.918;2022-09-27T17:32:23;6.17;;;2.00;;
11642;SDS011;5877;50.930;6.918;2022-09-27T17:34:50;4.10;;;2.20;;
11642;SDS011;5877;50.930;6.918;2022-09-27T17:37:17;5.93;;;2.30;;
11642;SDS011;5877;50.930;6.918;2022-09-27T17:39:44;3.37;;;2.77;;
11642;SDS011;5877;50.930;6.918;2022-09-27T17:42:11;4.37;;;2.17;;
11642;SDS011;5877;50.930;6.918;2022-09-27T17:44:38;4.33;;;2.60;;
11642;SDS011;5877;50.930;6.918;2022-09-27T17:47:07;5.87;;;3.17;;
11642;SDS011;5877;50.930;6.918;2022-09-27T17:49:52;3.27;;;1.90;;
11642;SDS011;5877;50.930;6.918;2022-09-27T17:52:38;2.63;;;1.63;;
11642;SDS011;5877;50.930;6.918;2022-09-27T17:55:05;3.13;;;2.03;;
11642;SDS011;5877;50.930;6.918;2022-09-27T17:57:32;3.37;;;2.00;;
11642;SDS011;5877;50.930;6.918;2022-09-27T18:00:00;3.50;;;2.87;;
11642;SDS011;5877;50.930;6.918;2022-09-27T18:02:26;2.40;;;1.60;;
11642;SDS011;5877;50.930;6.918;2022-09-27T18:04:53;1.93;;;1.60;;
11642;SDS011;5877;50.930;6.918;2022-09-27T18:07:20;3.40;;;1.90;;
11642;SDS011;5877;50.930;6.918;2022-09-27T18:09:48;4.77;;;3.63;;
11642;SDS011;5877;50.930;6.918;2022-09-27T18:12:16;2.90;;;2.37;;
11642;SDS011;5877;50.930;6.918;2022-09-27T18:14:43;3.90;;;2.63;;
11642;SDS011;5877;50.930;6.918;2022-09-27T18:17:12;4.17;;;2.30;;
11642;SDS011;5877;50.930;6.918;2022-09-27T18:19:39;4.20;;;2.83;;
11642;SDS011;5877;50.930;6.918;2022-09-27T18:22:05;5.60;;;3.43;;
11642;SDS011;5877;50.930;6.918;2022-09-27T18:24:33;3.17;;;1.87;;
11642;SDS011;5877;50.930;6.918;2022-09-27T18:26:59;6.27;;;3.37;;
11642;SDS011;5877;50.930;6.918;2022-09-27T18:29:26;3.50;;;2.30;;
11642;SDS011;5877;50.930;6.918;2022-09-27T18:31:54;3.47;;;2.87;;
11642;SDS011;5877;50.930;6.918;2022-09-27T18:34:21;4.70;;;2.63;;
11642;SDS011;5877;50.930;6.918;2022-09-27T18:36:49;4.70;;;2.53;;
11642;SDS011;5877;50.930;6.918;2022-09-27T18:39:16;5.23;;;2.47;;
11642;SDS011;5877;50.930;6.918;2022-09-27T18:41:45;3.70;;;2.87;;
11642;SDS011;5877;50.930;6.918;2022-09-27T18:44:15;4.47;;;2.77;;